createdAt,value
2023-03-12T00:01:39.753Z,9.45
2023-03-12T00:04:06.920Z,14.93
2023-03-12T00:06:33.992Z,10.45
2023-03-12T00:09:02.033Z,12.55
2023-03-12T00:11:29.377Z,17.60
2023-03-12T00:13:57.956Z,13.93
2023-03-12T00:16:25.198Z,8.98
2023-03-12T00:18:53.715Z,15.45
2023-03-12T00:21:22.001Z,14.02
2023-03-12T00:23:49.315Z,10.87
2023-03-12T00:26:16.687Z,8.73
2023-03-12T00:28:43.776Z,18.55
2023-03-12T00:31:27.555Z,13.68
2023-03-12T00:33:55.594Z,14.32
2023-03-12T00:36:25.002Z,9.97
2023-03-12T00:38:52.654Z,12.18
2023-03-12T00:41:20.285Z,13.57
2023-03-12T00:43:47.973Z,13.05
2023-03-12T00:46:15.748Z,10.40
2023-03-12T00:48:43.432Z,14.97
2023-03-12T00:51:11.629Z,10.48
2023-03-12T00:53:38.601Z,15.40
2023-03-12T00:56:06.438Z,10.90
2023-03-12T00:58:33.386Z,10.85
2023-03-12T01:01:00.394Z,21.77
2023-03-12T01:03:27.690Z,10.25
2023-03-12T01:05:57.113Z,13.52
2023-03-12T01:08:24.776Z,11.35
2023-03-12T01:10:52.191Z,12.23
2023-03-12T01:13:19.208Z,14.23
2023-03-12T01:15:46.069Z,19.02
2023-03-12T01:18:13.021Z,15.00
2023-03-12T01:20:41.103Z,12.18
2023-03-12T01:23:08.958Z,15.38
2023-03-12T01:25:36.422Z,14.73
2023-03-12T01:28:03.998Z,13.55
2023-03-12T01:30:31.305Z,9.88
2023-03-12T01:32:58.473Z,12.15
2023-03-12T01:35:25.906Z,12.20
2023-03-12T01:37:53.401Z,13.27
2023-03-12T01:40:25.428Z,9.68
2023-03-12T01:42:57.060Z,11.20
2023-03-12T01:46:01.263Z,15.15
2023-03-12T01:48:34.273Z,15.43
2023-03-12T01:51:02.819Z,11.57
2023-03-12T01:53:30.896Z,14.73
2023-03-12T01:55:59.338Z,9.70
2023-03-12T01:58:28.265Z,11.48
2023-03-12T02:00:55.562Z,9.45
2023-03-12T02:03:22.821Z,9.50
2023-03-12T02:06:00.388Z,13.45
2023-03-12T02:08:28.399Z,10.88
2023-03-12T02:10:55.352Z,13.70
2023-03-12T02:13:22.377Z,11.13
2023-03-12T02:15:49.349Z,10.67
2023-03-12T02:18:21.342Z,15.15
2023-03-12T02:21:07.474Z,10.35
2023-03-12T02:23:45.705Z,12.13
2023-03-12T02:26:13.669Z,12.93
2023-03-12T02:28:44.270Z,10.70
2023-03-12T02:31:17.441Z,7.45
2023-03-12T02:33:44.416Z,11.60
2023-03-12T02:36:11.581Z,8.77
2023-03-12T02:38:38.610Z,9.73
2023-03-12T02:41:20.532Z,17.37
2023-03-12T02:44:16.730Z,12.88
2023-03-12T02:46:49.260Z,13.45
2023-03-12T02:49:18.578Z,10.68
2023-03-12T02:51:47.481Z,10.75
2023-03-12T02:54:16.049Z,12.83
2023-03-12T02:56:43.478Z,9.90
2023-03-12T02:59:11.601Z,13.98
2023-03-12T03:01:43.042Z,10.63
2023-03-12T03:04:11.427Z,11.30
2023-03-12T03:06:40.755Z,11.93
2023-03-12T03:09:08.120Z,9.80
2023-03-12T03:11:35.331Z,11.23
2023-03-12T03:14:07.151Z,9.40
2023-03-12T03:16:35.139Z,9.63
2023-03-12T03:19:02.399Z,14.73
2023-03-12T03:21:29.652Z,8.25
2023-03-12T03:23:56.862Z,9.85
2023-03-12T03:26:24.982Z,13.68
2023-03-12T03:28:52.791Z,8.48
2023-03-12T03:31:20.146Z,14.77
2023-03-12T03:33:47.522Z,13.93
2023-03-12T11:54:01.898Z,39.05
2023-03-12T11:56:40.979Z,38.53
2023-03-12T11:59:19.656Z,39.97
2023-03-12T12:02:18.060Z,37.93
2023-03-12T12:05:10.158Z,47.38
2023-03-12T12:08:30.613Z,32.75
2023-03-12T12:11:13.586Z,31.38
2023-03-12T12:13:49.440Z,32.40
2023-03-12T12:16:44.049Z,35.80
2023-03-12T12:19:20.688Z,47.35
2023-03-12T12:22:02.521Z,35.38
2023-03-12T12:25:08.440Z,45.25
2023-03-12T12:27:55.686Z,36.70
2023-03-12T12:30:50.524Z,44.07
2023-03-12T12:33:39.664Z,35.58
2023-03-12T12:36:09.812Z,44.85
2023-03-12T12:38:47.800Z,41.50
2023-03-12T12:41:26.684Z,40.90
2023-03-12T12:43:59.980Z,30.57
2023-03-12T12:46:32.440Z,28.55
2023-03-12T12:49:24.584Z,47.65
2023-03-12T12:51:57.274Z,43.42
2023-03-12T12:54:37.342Z,44.72
2023-03-12T12:57:49.475Z,41.30
2023-03-12T13:00:48.749Z,59.85
2023-03-12T13:03:22.914Z,51.63
2023-03-12T13:05:52.569Z,35.17
2023-03-12T13:08:40.316Z,33.97
2023-03-12T13:11:39.393Z,53.97
2023-03-12T13:14:10.172Z,39.60
2023-03-12T13:16:43.063Z,29.65
2023-03-12T13:19:16.561Z,41.15
2023-03-12T13:22:00.660Z,42.22
2023-03-12T13:24:32.579Z,31.40
2023-03-12T13:27:17.147Z,44.58
2023-03-12T13:29:43.966Z,26.33
2023-03-12T13:32:35.942Z,38.28
2023-03-12T13:35:22.981Z,30.55
2023-03-12T13:37:52.740Z,36.23
2023-03-12T13:40:28.892Z,25.35
2023-03-12T13:43:14.621Z,31.20
2023-03-12T13:46:36.786Z,25.45
2023-03-12T13:49:10.633Z,32.15
2023-03-12T13:51:45.440Z,17.63
2023-03-12T13:54:18.802Z,29.05
2023-03-12T13:56:59.371Z,30.38
2023-03-12T13:59:28.451Z,32.75
2023-03-12T14:02:00.309Z,29.08
2023-03-12T14:05:02.378Z,29.67
2023-03-12T14:07:53.467Z,31.55
2023-03-12T14:11:08.981Z,33.28
2023-03-12T14:13:41.972Z,26.42
2023-03-12T14:16:46.191Z,30.38
2023-03-12T14:19:14.654Z,22.77
2023-03-12T14:21:50.939Z,32.08
2023-03-12T14:24:31.928Z,29.35
2023-03-12T14:27:04.191Z,34.63
2023-03-12T14:30:07.431Z,35.58
2023-03-12T14:32:35.379Z,29.13
2023-03-12T14:35:33.700Z,41.00
2023-03-12T14:38:17.850Z,31.85
2023-03-12T14:40:55.411Z,35.33
2023-03-12T14:43:31.378Z,43.47
2023-03-12T14:46:05.936Z,40.07
2023-03-12T14:48:37.179Z,36.85
2023-03-12T14:51:06.584Z,30.08
2023-03-12T14:53:38.575Z,34.08
2023-03-12T14:56:29.344Z,37.08
2023-03-12T14:59:01.702Z,30.17
2023-03-12T15:01:32.641Z,34.15
2023-03-12T15:04:08.644Z,27.58
2023-03-12T15:06:40.511Z,27.02
2023-03-12T15:09:09.153Z,24.48
2023-03-12T15:11:39.670Z,27.47
2023-03-12T15:14:16.108Z,23.13
2023-03-12T15:16:46.541Z,43.53
2023-03-12T15:19:16.901Z,45.47
2023-03-12T15:21:44.861Z,23.40
2023-03-12T15:24:13.814Z,48.00
2023-03-12T15:26:41.430Z,34.88
2023-03-12T15:29:39.161Z,33.65
2023-03-12T15:32:14.802Z,28.30
2023-03-12T15:34:42.060Z,34.42
2023-03-12T15:37:33.728Z,41.03
2023-03-12T15:40:16.798Z,46.70
2023-03-12T15:42:49.833Z,40.45
2023-03-12T15:45:25.460Z,43.53
2023-03-12T15:48:12.418Z,33.85
2023-03-12T15:50:51.358Z,27.23
2023-03-12T15:53:18.278Z,51.83
2023-03-12T15:56:05.740Z,37.67
2023-03-12T15:58:35.546Z,26.33
2023-03-12T16:01:24.256Z,31.70
2023-03-12T16:03:51.162Z,35.50
2023-03-12T16:06:25.860Z,55.00
2023-03-12T16:08:57.829Z,30.20
2023-03-12T16:11:27.731Z,26.92
2023-03-12T16:14:22.534Z,37.25
2023-03-12T16:16:52.149Z,48.00
2023-03-12T16:19:21.766Z,34.60
2023-03-12T16:21:49.961Z,50.33
2023-03-12T16:24:17.552Z,32.47
2023-03-12T16:26:54.627Z,25.45
2023-03-12T16:29:23.170Z,33.07
2023-03-12T16:31:56.040Z,23.92
2023-03-12T16:34:23.622Z,39.85
2023-03-12T16:36:51.287Z,50.15
2023-03-12T16:39:18.986Z,45.28
2023-03-12T16:41:46.978Z,35.90
2023-03-12T16:44:21.148Z,43.25
2023-03-12T16:46:48.356Z,40.25
2023-03-12T16:49:17.216Z,41.53
2023-03-12T16:51:44.000Z,35.80
2023-03-12T16:54:12.253Z,38.20
2023-03-12T16:56:42.839Z,31.30
2023-03-12T16:59:26.069Z,34.97
2023-03-12T17:01:53.570Z,34.65
2023-03-12T17:04:20.765Z,38.15
2023-03-12T17:06:47.614Z,36.57
2023-03-12T17:09:14.434Z,48.55
2023-03-12T17:11:41.454Z,41.67
2023-03-12T17:14:21.616Z,39.78
2023-03-12T17:16:49.490Z,33.83
2023-03-12T17:19:17.122Z,35.30
2023-03-12T17:21:44.550Z,38.05
2023-03-12T17:24:15.290Z,39.78
2023-03-12T17:26:42.930Z,33.47
2023-03-12T17:29:10.175Z,37.60
2023-03-12T17:31:37.824Z,22.53
2023-03-12T17:34:05.097Z,45.55
2023-03-12T17:36:31.935Z,21.45
2023-03-12T17:39:00.044Z,33.85
2023-03-12T17:41:27.548Z,23.23
2023-03-12T17:43:55.425Z,17.80
2023-03-12T17:46:22.614Z,28.85
2023-03-12T17:48:49.507Z,20.92
2023-03-12T17:51:16.980Z,13.05
2023-03-12T17:53:45.366Z,15.48
2023-03-12T17:56:13.475Z,16.97
2023-03-12T17:58:41.327Z,11.05
2023-03-12T18:01:08.541Z,9.60
2023-03-12T18:03:39.134Z,9.50
2023-03-12T18:06:06.709Z,13.23
2023-03-12T18:08:34.469Z,11.47
2023-03-12T18:11:02.939Z,13.93
2023-03-12T18:13:30.712Z,11.52
2023-03-12T18:16:02.546Z,7.68
2023-03-12T18:18:35.970Z,14.20
2023-03-12T18:21:06.123Z,7.60
2023-03-12T18:23:33.991Z,10.38
2023-03-12T18:26:01.579Z,14.52
2023-03-12T18:28:31.975Z,14.55
2023-03-12T18:30:59.677Z,12.68
2023-03-12T18:33:30.803Z,9.67
2023-03-12T18:36:00.279Z,14.07
2023-03-12T18:38:28.764Z,14.82
2023-03-12T18:41:10.993Z,10.18
2023-03-12T18:43:41.901Z,9.55
2023-03-12T18:46:12.776Z,9.60
2023-03-12T18:48:47.908Z,7.72
2023-03-12T18:51:28.044Z,12.45
2023-03-12T18:53:58.472Z,10.25
2023-03-12T18:56:32.486Z,14.90
2023-03-12T18:59:13.290Z,11.93
2023-03-12T19:01:44.522Z,15.38
2023-03-12T19:04:27.680Z,14.65
2023-03-12T19:07:03.407Z,21.33
2023-03-12T19:09:43.182Z,10.93
2023-03-12T19:12:11.285Z,19.10
2023-03-12T19:14:41.027Z,17.05
2023-03-12T19:17:08.019Z,28.70
2023-03-12T19:19:46.762Z,19.45
2023-03-12T19:22:19.709Z,19.48
2023-03-12T19:25:01.689Z,11.87
2023-03-12T19:27:36.918Z,25.40
2023-03-12T19:30:10.846Z,22.50
2023-03-12T19:32:43.833Z,20.38
2023-03-12T19:35:14.662Z,29.52
2023-03-12T19:37:42.458Z,25.10
2023-03-12T19:40:10.887Z,37.83
2023-03-12T19:42:38.133Z,25.23
2023-03-12T19:45:05.697Z,18.77
2023-03-12T19:47:33.366Z,30.65
2023-03-12T19:50:04.865Z,23.97
2023-03-12T19:52:32.485Z,25.33
2023-03-12T19:55:05.462Z,25.23
2023-03-12T19:57:33.632Z,19.33
2023-03-12T20:00:00.491Z,29.67
2023-03-12T20:02:27.772Z,35.73
2023-03-12T20:04:55.503Z,33.60
2023-03-12T20:07:22.910Z,36.83
2023-03-12T20:09:50.055Z,33.65
2023-03-12T20:12:18.783Z,26.42
2023-03-12T20:14:48.798Z,33.10
2023-03-12T20:17:15.951Z,32.40
2023-03-12T20:19:42.904Z,33.67
2023-03-12T20:22:09.796Z,27.80
2023-03-12T20:24:36.625Z,34.95
2023-03-12T20:27:03.947Z,35.57
2023-03-12T20:29:31.421Z,36.67
2023-03-12T20:31:59.541Z,32.60
2023-03-12T20:34:26.526Z,28.80
2023-03-12T20:36:55.228Z,36.85
2023-03-12T20:39:22.364Z,33.60
2023-03-12T20:41:50.109Z,39.13
2023-03-12T20:44:18.516Z,21.83
2023-03-12T20:46:47.272Z,28.10
2023-03-12T20:49:18.075Z,32.55
2023-03-12T20:51:46.095Z,28.47
2023-03-12T20:54:13.301Z,44.20
2023-03-12T20:56:43.591Z,27.63
2023-03-12T20:59:11.947Z,31.67
2023-03-12T21:01:38.774Z,37.05
2023-03-12T21:04:06.071Z,33.40
2023-03-12T21:06:32.907Z,36.17
2023-03-12T21:09:00.135Z,32.63
2023-03-12T21:11:27.701Z,39.17
2023-03-12T21:13:56.681Z,33.83
2023-03-12T21:16:26.514Z,31.43
2023-03-12T21:19:07.828Z,58.30
2023-03-12T21:21:36.434Z,37.40
2023-03-12T21:24:03.576Z,34.05
2023-03-12T21:26:30.454Z,28.52
2023-03-12T21:28:57.309Z,31.27
2023-03-12T21:31:24.145Z,38.28
2023-03-12T21:33:54.817Z,36.10
2023-03-12T21:36:22.185Z,40.47
2023-03-12T21:38:49.329Z,36.42
2023-03-12T21:41:18.513Z,37.17
2023-03-12T21:43:46.600Z,30.83
2023-03-12T21:46:17.374Z,37.90
2023-03-12T21:48:46.839Z,37.80
2023-03-12T21:51:15.872Z,43.33
2023-03-12T21:53:43.148Z,45.10
2023-03-12T21:56:11.076Z,45.08
2023-03-12T21:58:38.238Z,29.33
2023-03-12T22:01:15.555Z,40.33
2023-03-12T22:03:43.483Z,46.22
2023-03-12T22:06:11.284Z,36.77
2023-03-12T22:08:38.747Z,54.70
2023-03-12T22:11:07.250Z,41.60
2023-03-12T22:13:34.402Z,34.83
2023-03-12T22:16:05.974Z,38.85
2023-03-12T22:18:35.879Z,33.97
2023-03-12T22:21:05.247Z,32.97
2023-03-12T22:23:32.125Z,41.60
2023-03-12T22:26:06.580Z,40.15
2023-03-12T22:28:33.823Z,46.45
2023-03-12T22:31:03.915Z,51.43
2023-03-12T22:33:31.161Z,38.30
2023-03-12T22:35:57.968Z,43.30
2023-03-12T22:38:25.486Z,46.05
2023-03-12T22:40:55.410Z,34.78
2023-03-12T22:43:25.380Z,38.30
2023-03-12T22:45:54.941Z,45.78
2023-03-12T22:48:21.795Z,38.83
2023-03-12T22:50:54.835Z,32.50
2023-03-12T22:53:21.964Z,43.30
2023-03-12T22:56:07.443Z,44.33
2023-03-12T22:58:34.829Z,35.78
2023-03-12T23:01:02.924Z,37.13
2023-03-12T23:03:32.192Z,42.75
2023-03-12T23:06:02.792Z,45.65
2023-03-12T23:08:30.623Z,32.77
2023-03-12T23:11:03.281Z,35.47
2023-03-12T23:13:32.393Z,32.55
2023-03-12T23:16:07.725Z,41.25
2023-03-12T23:18:35.449Z,34.83
2023-03-12T23:21:05.806Z,35.53
2023-03-12T23:23:33.068Z,32.17
2023-03-12T23:26:01.468Z,45.45
2023-03-12T23:28:29.434Z,40.20
2023-03-12T23:30:58.822Z,40.72
2023-03-12T23:33:26.412Z,36.97
2023-03-12T23:36:06.193Z,30.15
2023-03-12T23:38:35.763Z,34.08
2023-03-12T23:41:07.073Z,32.30
2023-03-12T23:43:34.877Z,31.73
2023-03-12T23:46:03.931Z,35.37
2023-03-12T23:48:32.625Z,43.20
2023-03-12T23:51:13.988Z,25.48
2023-03-12T23:53:43.266Z,41.10
2023-03-12T23:56:12.917Z,34.55
2023-03-12T23:58:40.579Z,26.20
